sensor_id;sensor_type;location;lat;lon;timestamp;pressure;altitude;pressure_sealevel;temperature;humidity
45763;BME280;37512;52.408;13.356;2022-11-20T00:02:16;100712.47;;;-2.34;100.00
45763;BME280;37512;52.408;13.356;2022-11-20T00:06:19;100720.34;;;-2.27;100.00
45763;BME280;37512;52.408;13.356;2022-11-20T00:10:21;100706.44;;;-2.20;100.00
45763;BME280;37512;52.408;13.356;2022-11-20T00:14:22;100702.91;;;-2.21;100.00
45763;BME280;37512;52.408;13.356;2022-11-20T00:18:25;100701.59;;;-2.28;100.00
45763;BME280;37512;52.408;13.356;2022-11-20T00:22:26;100693.72;;;-2.35;100.00
45763;BME280;37512;52.408;13.356;2022-11-20T00:26:28;100704.84;;;-2.26;100.00
45763;BME280;37512;52.408;13.356;2022-11-20T00:30:30;100703.19;;;-2.22;100.00
45763;BME280;37512;52.408;13.356;2022-11-20T00:34:31;100695.59;;;-2.31;100.00
45763;BME280;37512;52.408;13.356;2022-11-20T00:38:33;100692.66;;;-2.34;100.00
45763;BME280;37512;52.408;13.356;2022-11-20T00:42:35;100702.13;;;-2.26;100.00
45763;BME280;37512;52.408;13.356;2022-11-20T00:46:36;100705.69;;;-2.36;100.00
45763;BME280;37512;52.408;13.356;2022-11-20T00:50:38;100704.09;;;-2.42;100.00
45763;BME280;37512;52.408;13.356;2022-11-20T00:54:40;100703.81;;;-2.41;100.00
45763;BME280;37512;52.408;13.356;2022-11-20T00:58:43;100705.19;;;-2.43;100.00
45763;BME280;37512;52.408;13.356;2022-11-20T01:02:44;100701.97;;;-2.50;100.00
45763;BME280;37512;52.408;13.356;2022-11-20T01:06:46;100704.66;;;-2.45;100.00
45763;BME280;37512;52.408;13.356;2022-11-20T01:10:47;100700.56;;;-2.43;100.00
45763;BME280;37512;52.408;13.356;2022-11-20T01:14:49;100705.50;;;-2.50;100.00
45763;BME280;37512;52.408;13.356;2022-11-20T01:18:52;100706.06;;;-2.58;100.00
45763;BME280;37512;52.408;13.356;2022-11-20T01:22:54;100689.78;;;-2.63;100.00
45763;BME280;37512;52.408;13.356;2022-11-20T01:26:56;100688.69;;;-2.62;100.00
45763;BME280;37512;52.408;13.356;2022-11-20T01:30:58;100698.16;;;-2.49;100.00
45763;BME280;37512;52.408;13.356;2022-11-20T01:34:59;100691.94;;;-2.55;100.00
45763;BME280;37512;52.408;13.356;2022-11-20T01:39:04;100694.91;;;-2.57;100.00
45763;BME280;37512;52.408;13.356;2022-11-20T01:43:14;100697.41;;;-2.70;100.00
45763;BME280;37512;52.408;13.356;2022-11-20T01:47:31;100686.53;;;-2.70;100.00
45763;BME280;37512;52.408;13.356;2022-11-20T01:51:41;100689.81;;;-2.79;100.00
45763;BME280;37512;52.408;13.356;2022-11-20T01:55:51;100683.56;;;-2.79;100.00
45763;BME280;37512;52.408;13.356;2022-11-20T02:00:00;100693.91;;;-2.81;100.00
45763;BME280;37512;52.408;13.356;2022-11-20T02:04:02;100681.41;;;-2.77;100.00
45763;BME280;37512;52.408;13.356;2022-11-20T02:08:05;100689.00;;;-2.79;100.00
45763;BME280;37512;52.408;13.356;2022-11-20T02:12:08;100674.09;;;-2.82;100.00
45763;BME280;37512;52.408;13.356;2022-11-20T02:16:35;100669.72;;;-2.78;100.00
45763;BME280;37512;52.408;13.356;2022-11-20T02:20:40;100669.75;;;-2.83;100.00
45763;BME280;37512;52.408;13.356;2022-11-20T02:24:43;100663.25;;;-2.87;100.00
45763;BME280;37512;52.408;13.356;2022-11-20T02:28:46;100663.00;;;-2.96;100.00
45763;BME280;37512;52.408;13.356;2022-11-20T02:32:47;100663.19;;;-2.77;100.00
45763;BME280;37512;52.408;13.356;2022-11-20T02:36:51;100661.31;;;-2.86;100.00
45763;BME280;37512;52.408;13.356;2022-11-20T02:40:53;100655.63;;;-2.90;100.00
45763;BME280;37512;52.408;13.356;2022-11-20T02:44:56;100655.91;;;-2.91;100.00
45763;BME280;37512;52.408;13.356;2022-11-20T02:48:57;100654.56;;;-2.99;100.00
45763;BME280;37512;52.408;13.356;2022-11-20T02:52:59;100647.00;;;-3.12;100.00
45763;BME280;37512;52.408;13.356;2022-11-20T02:57:00;100656.22;;;-2.98;100.00
45763;BME280;37512;52.408;13.356;2022-11-20T03:01:02;100642.13;;;-3.05;100.00
45763;BME280;37512;52.408;13.356;2022-11-20T03:05:04;100645.63;;;-3.05;100.00
45763;BME280;37512;52.408;13.356;2022-11-20T03:09:05;100643.78;;;-3.25;100.00
45763;BME280;37512;52.408;13.356;2022-11-20T03:13:07;100635.59;;;-3.20;100.00
45763;BME280;37512;52.408;13.356;2022-11-20T03:17:09;100637.53;;;-3.36;100.00
45763;BME280;37512;52.408;13.356;2022-11-20T03:21:11;100639.47;;;-3.41;100.00
45763;BME280;37512;52.408;13.356;2022-11-20T03:25:13;100622.06;;;-3.25;100.00
45763;BME280;37512;52.408;13.356;2022-11-20T03:29:15;100622.84;;;-3.14;100.00
45763;BME280;37512;52.408;13.356;2022-11-20T03:33:16;100629.38;;;-3.20;100.00
45763;BME280;37512;52.408;13.356;2022-11-20T03:37:18;100628.03;;;-3.28;100.00
45763;BME280;37512;52.408;13.356;2022-11-20T03:41:24;100628.56;;;-3.31;100.00
45763;BME280;37512;52.408;13.356;2022-11-20T03:45:26;100630.22;;;-3.30;100.00
45763;BME280;37512;52.408;13.356;2022-11-20T03:49:27;100628.28;;;-3.24;100.00
45763;BME280;37512;52.408;13.356;2022-11-20T03:53:29;100629.66;;;-3.17;100.00
45763;BME280;37512;52.408;13.356;2022-11-20T03:57:30;100623.13;;;-3.21;100.00
45763;BME280;37512;52.408;13.356;2022-11-20T04:01:34;100622.28;;;-3.06;100.00
45763;BME280;37512;52.408;13.356;2022-11-20T04:05:36;100614.09;;;-2.96;100.00
45763;BME280;37512;52.408;13.356;2022-11-20T04:09:38;100620.63;;;-3.02;100.00
45763;BME280;37512;52.408;13.356;2022-11-20T04:13:40;100617.34;;;-2.88;100.00
45763;BME280;37512;52.408;13.356;2022-11-20T04:17:42;100624.38;;;-2.82;100.00
45763;BME280;37512;52.408;13.356;2022-11-20T04:21:44;100616.00;;;-2.91;100.00
45763;BME280;37512;52.408;13.356;2022-11-20T04:25:45;100619.50;;;-2.90;100.00
45763;BME280;37512;52.408;13.356;2022-11-20T04:29:47;100617.66;;;-3.00;100.00
45763;BME280;37512;52.408;13.356;2022-11-20T04:33:48;100627.63;;;-2.80;100.00
45763;BME280;37512;52.408;13.356;2022-11-20T04:37:53;100614.81;;;-2.75;100.00
45763;BME280;37512;52.408;13.356;2022-11-20T04:41:54;100617.03;;;-2.82;100.00
45763;BME280;37512;52.408;13.356;2022-11-20T04:46:18;100625.72;;;-2.80;100.00
45763;BME280;37512;52.408;13.356;2022-11-20T04:50:20;100618.09;;;-2.72;100.00
45763;BME280;37512;52.408;13.356;2022-11-20T04:54:21;100609.63;;;-2.66;100.00
45763;BME280;37512;52.408;13.356;2022-11-20T04:58:23;100605.03;;;-2.70;100.00
45763;BME280;37512;52.408;13.356;2022-11-20T05:02:24;100607.47;;;-2.74;100.00
45763;BME280;37512;52.408;13.356;2022-11-20T05:06:26;100598.78;;;-2.76;100.00
45763;BME280;37512;52.408;13.356;2022-11-20T05:10:28;100593.28;;;-2.61;100.00
45763;BME280;37512;52.408;13.356;2022-11-20T05:14:29;100585.19;;;-2.66;100.00
45763;BME280;37512;52.408;13.356;2022-11-20T05:18:31;100581.38;;;-2.70;100.00
45763;BME280;37512;52.408;13.356;2022-11-20T05:22:32;100581.63;;;-2.61;100.00
45763;BME280;37512;52.408;13.356;2022-11-20T05:26:34;100582.16;;;-2.59;100.00
45763;BME280;37512;52.408;13.356;2022-11-20T05:30:35;100584.06;;;-2.60;100.00
45763;BME280;37512;52.408;13.356;2022-11-20T05:34:37;100588.16;;;-2.62;100.00
45763;BME280;37512;52.408;13.356;2022-11-20T05:38:39;100584.88;;;-2.59;100.00
45763;BME280;37512;52.408;13.356;2022-11-20T05:42:41;100590.53;;;-2.56;100.00
45763;BME280;37512;52.408;13.356;2022-11-20T05:46:44;100583.22;;;-2.55;100.00
45763;BME280;37512;52.408;13.356;2022-11-20T05:50:47;100587.81;;;-2.56;100.00
45763;BME280;37512;52.408;13.356;2022-11-20T05:54:49;100581.56;;;-2.51;100.00
45763;BME280;37512;52.408;13.356;2022-11-20T05:58:51;100576.38;;;-2.47;100.00
45763;BME280;37512;52.408;13.356;2022-11-20T06:02:52;100569.00;;;-2.42;100.00
45763;BME280;37512;52.408;13.356;2022-11-20T06:06:54;100563.53;;;-2.37;100.00
45763;BME280;37512;52.408;13.356;2022-11-20T06:10:55;100580.38;;;-2.35;100.00
45763;BME280;37512;52.408;13.356;2022-11-20T06:14:57;100577.13;;;-2.37;100.00
45763;BME280;37512;52.408;13.356;2022-11-20T06:18:58;100577.63;;;-2.29;100.00
45763;BME280;37512;52.408;13.356;2022-11-20T06:23:00;100568.19;;;-2.42;100.00
45763;BME280;37512;52.408;13.356;2022-11-20T06:27:01;100574.09;;;-2.30;100.00
45763;BME280;37512;52.408;13.356;2022-11-20T06:31:04;100567.88;;;-2.36;100.00
45763;BME280;37512;52.408;13.356;2022-11-20T06:35:06;100573.81;;;-2.28;100.00
45763;BME280;37512;52.408;13.356;2022-11-20T06:39:07;100575.22;;;-2.36;100.00
45763;BME280;37512;52.408;13.356;2022-11-20T06:43:09;100574.91;;;-2.29;100.00
45763;BME280;37512;52.408;13.356;2022-11-20T06:47:11;100572.75;;;-2.33;100.00
45763;BME280;37512;52.408;13.356;2022-11-20T06:51:13;100574.06;;;-2.25;100.00
45763;BME280;37512;52.408;13.356;2022-11-20T06:55:15;100570.38;;;-2.44;100.00
45763;BME280;37512;52.408;13.356;2022-11-20T06:59:16;100572.56;;;-2.46;100.00
45763;BME280;37512;52.408;13.356;2022-11-20T07:03:17;100571.72;;;-2.42;100.00
45763;BME280;37512;52.408;13.356;2022-11-20T07:07:19;100575.28;;;-2.46;100.00
45763;BME280;37512;52.408;13.356;2022-11-20T07:11:21;100572.56;;;-2.46;100.00
45763;BME280;37512;52.408;13.356;2022-11-20T07:15:23;100574.50;;;-2.52;100.00
45763;BME280;37512;52.408;13.356;2022-11-20T07:19:26;100572.84;;;-2.48;100.00
45763;BME280;37512;52.408;13.356;2022-11-20T07:23:27;100570.38;;;-2.44;100.00
45763;BME280;37512;52.408;13.356;2022-11-20T07:27:29;100555.75;;;-2.54;100.00
45763;BME280;37512;52.408;13.356;2022-11-20T07:31:30;100554.91;;;-2.49;100.00
45763;BME280;37512;52.408;13.356;2022-11-20T07:35:32;100554.38;;;-2.51;100.00
45763;BME280;37512;52.408;13.356;2022-11-20T07:39:34;100556.00;;;-2.50;100.00
45763;BME280;37512;52.408;13.356;2022-11-20T07:43:35;100560.69;;;-2.61;100.00
45763;BME280;37512;52.408;13.356;2022-11-20T07:47:41;100557.09;;;-2.51;100.00
45763;BME280;37512;52.408;13.356;2022-11-20T07:51:43;100556.78;;;-2.39;100.00
45763;BME280;37512;52.408;13.356;2022-11-20T07:55:44;100548.63;;;-2.39;100.00
45763;BME280;37512;52.408;13.356;2022-11-20T07:59:46;100543.13;;;-2.34;100.00
45763;BME280;37512;52.408;13.356;2022-11-20T08:03:47;100546.38;;;-2.32;100.00
45763;BME280;37512;52.408;13.356;2022-11-20T08:07:49;100535.16;;;-2.20;100.00
45763;BME280;37512;52.408;13.356;2022-11-20T08:11:50;100537.59;;;-2.24;100.00
45763;BME280;37512;52.408;13.356;2022-11-20T08:16:30;100537.88;;;-2.20;100.00
45763;BME280;37512;52.408;13.356;2022-11-20T08:20:32;100540.94;;;-1.98;100.00
45763;BME280;37512;52.408;13.356;2022-11-20T08:24:35;100540.66;;;-1.67;100.00
45763;BME280;37512;52.408;13.356;2022-11-20T08:28:36;100540.03;;;-1.88;100.00
45763;BME280;37512;52.408;13.356;2022-11-20T08:32:38;100540.56;;;-1.86;100.00
45763;BME280;37512;52.408;13.356;2022-11-20T08:36:39;100546.72;;;-1.75;100.00
45763;BME280;37512;52.408;13.356;2022-11-20T08:40:41;100545.09;;;-1.76;100.00
45763;BME280;37512;52.408;13.356;2022-11-20T08:45:03;100532.16;;;-1.90;100.00
45763;BME280;37512;52.408;13.356;2022-11-20T08:49:07;100533.50;;;-1.87;100.00
45763;BME280;37512;52.408;13.356;2022-11-20T08:53:09;100525.69;;;-1.99;100.00
45763;BME280;37512;52.408;13.356;2022-11-20T08:57:10;100529.34;;;-2.08;100.00
45763;BME280;37512;52.408;13.356;2022-11-20T09:01:12;100528.91;;;-2.21;100.00
45763;BME280;37512;52.408;13.356;2022-11-20T09:05:13;100534.28;;;-2.16;100.00
45763;BME280;37512;52.408;13.356;2022-11-20T09:09:15;100551.03;;;-1.98;100.00
45763;BME280;37512;52.408;13.356;2022-11-20T09:13:16;100541.81;;;-1.73;100.00
45763;BME280;37512;52.408;13.356;2022-11-20T09:17:18;100538.13;;;-1.87;100.00
45763;BME280;37512;52.408;13.356;2022-11-20T09:21:21;100539.22;;;-1.88;100.00
45763;BME280;37512;52.408;13.356;2022-11-20T09:25:24;100534.84;;;-1.84;100.00
45763;BME280;37512;52.408;13.356;2022-11-20T09:29:26;100535.25;;;-1.72;100.00
45763;BME280;37512;52.408;13.356;2022-11-20T09:33:27;100531.81;;;-1.83;100.00
45763;BME280;37512;52.408;13.356;2022-11-20T09:37:29;100537.84;;;-1.86;100.00
45763;BME280;37512;52.408;13.356;2022-11-20T09:54:37;100531.06;;;-1.88;100.00
45763;BME280;37512;52.408;13.356;2022-11-20T09:58:44;100526.09;;;-1.81;100.00
45763;BME280;37512;52.408;13.356;2022-11-20T10:02:52;100520.78;;;-1.67;100.00
45763;BME280;37512;52.408;13.356;2022-11-20T10:07:25;100515.16;;;-1.76;100.00
45763;BME280;37512;52.408;13.356;2022-11-20T10:15:56;100500.69;;;-1.72;100.00
45763;BME280;37512;52.408;13.356;2022-11-20T10:20:27;100508.78;;;-1.91;100.00
45763;BME280;37512;52.408;13.356;2022-11-20T10:29:10;100506.94;;;-1.71;100.00
45763;BME280;37512;52.408;13.356;2022-11-20T10:33:17;100505.25;;;-1.91;100.00
45763;BME280;37512;52.408;13.356;2022-11-20T10:37:27;100506.59;;;-1.64;100.00
45763;BME280;37512;52.408;13.356;2022-11-20T10:41:37;100493.63;;;-1.73;100.00
45763;BME280;37512;52.408;13.356;2022-11-20T10:45:43;100504.53;;;-1.73;100.00
45763;BME280;37512;52.408;13.356;2022-11-20T10:49:51;100489.78;;;-1.66;100.00
45763;BME280;37512;52.408;13.356;2022-11-20T11:03:24;100486.41;;;-1.82;100.00
45763;BME280;37512;52.408;13.356;2022-11-20T11:07:36;100478.72;;;-1.75;100.00
45763;BME280;37512;52.408;13.356;2022-11-20T11:11:39;100481.75;;;-1.58;100.00
45763;BME280;37512;52.408;13.356;2022-11-20T11:15:41;100474.66;;;-1.54;100.00
45763;BME280;37512;52.408;13.356;2022-11-20T11:19:42;100475.28;;;-1.38;100.00
45763;BME280;37512;52.408;13.356;2022-11-20T11:23:44;100468.25;;;-1.20;100.00
45763;BME280;37512;52.408;13.356;2022-11-20T11:27:49;100458.41;;;-0.78;100.00
45763;BME280;37512;52.408;13.356;2022-11-20T11:32:07;100451.88;;;-0.44;100.00
45763;BME280;37512;52.408;13.356;2022-11-20T11:36:22;100455.78;;;-0.50;100.00
45763;BME280;37512;52.408;13.356;2022-11-20T11:40:26;100450.31;;;-0.83;100.00
45763;BME280;37512;52.408;13.356;2022-11-20T11:44:32;100447.13;;;-0.52;100.00
45763;BME280;37512;52.408;13.356;2022-11-20T11:57:39;100445.34;;;-0.62;100.00
45763;BME280;37512;52.408;13.356;2022-11-20T12:01:47;100441.72;;;-0.57;100.00
45763;BME280;37512;52.408;13.356;2022-11-20T12:06:01;100428.63;;;-0.55;100.00
45763;BME280;37512;52.408;13.356;2022-11-20T12:10:16;100429.25;;;-0.12;100.00
45763;BME280;37512;52.408;13.356;2022-11-20T12:14:24;100419.19;;;0.16;100.00
45763;BME280;37512;52.408;13.356;2022-11-20T12:18:29;100426.53;;;0.02;100.00
45763;BME280;37512;52.408;13.356;2022-11-20T12:22:34;100425.41;;;-0.11;100.00
45763;BME280;37512;52.408;13.356;2022-11-20T12:31:02;100414.16;;;-0.23;100.00
45763;BME280;37512;52.408;13.356;2022-11-20T12:39:34;100418.72;;;-0.18;100.00
45763;BME280;37512;52.408;13.356;2022-11-20T12:43:53;100409.91;;;-0.43;100.00
45763;BME280;37512;52.408;13.356;2022-11-20T13:06:11;100411.84;;;-0.63;100.00
45763;BME280;37512;52.408;13.356;2022-11-20T13:18:56;100398.63;;;-0.88;100.00
45763;BME280;37512;52.408;13.356;2022-11-20T13:23:02;100393.44;;;-0.71;100.00
45763;BME280;37512;52.408;13.356;2022-11-20T13:31:44;100385.59;;;-0.91;100.00
45763;BME280;37512;52.408;13.356;2022-11-20T13:35:56;100379.47;;;-0.83;100.00
45763;BME280;37512;52.408;13.356;2022-11-20T13:40:25;100383.97;;;-1.11;100.00
45763;BME280;37512;52.408;13.356;2022-11-20T13:48:45;100377.03;;;-1.03;100.00
45763;BME280;37512;52.408;13.356;2022-11-20T13:57:18;100376.38;;;-0.95;100.00
45763;BME280;37512;52.408;13.356;2022-11-20T14:01:26;100386.38;;;-1.10;100.00
45763;BME280;37512;52.408;13.356;2022-11-20T14:05:38;100390.94;;;-1.05;100.00
45763;BME280;37512;52.408;13.356;2022-11-20T14:09:53;100386.34;;;-1.04;100.00
45763;BME280;37512;52.408;13.356;2022-11-20T14:14:02;100389.34;;;-1.06;100.00
45763;BME280;37512;52.408;13.356;2022-11-20T14:18:13;100388.81;;;-0.89;100.00
45763;BME280;37512;52.408;13.356;2022-11-20T14:26:19;100380.81;;;-0.99;100.00
45763;BME280;37512;52.408;13.356;2022-11-20T14:30:30;100366.75;;;-1.07;100.00
45763;BME280;37512;52.408;13.356;2022-11-20T14:34:40;100371.59;;;-1.03;100.00
45763;BME280;37512;52.408;13.356;2022-11-20T14:38:43;100378.97;;;-1.04;100.00
45763;BME280;37512;52.408;13.356;2022-11-20T14:42:44;100387.84;;;-0.98;100.00
45763;BME280;37512;52.408;13.356;2022-11-20T14:46:46;100398.47;;;-1.16;100.00
45763;BME280;37512;52.408;13.356;2022-11-20T14:50:47;100391.03;;;-1.10;100.00
45763;BME280;37512;52.408;13.356;2022-11-20T14:54:54;100390.22;;;-1.11;100.00
45763;BME280;37512;52.408;13.356;2022-11-20T14:58:57;100387.06;;;-0.99;100.00
45763;BME280;37512;52.408;13.356;2022-11-20T15:02:59;100392.59;;;-1.04;100.00
45763;BME280;37512;52.408;13.356;2022-11-20T15:07:00;100386.34;;;-1.04;100.00
45763;BME280;37512;52.408;13.356;2022-11-20T15:11:03;100380.72;;;-0.94;100.00
45763;BME280;37512;52.408;13.356;2022-11-20T15:15:28;100380.06;;;-0.86;100.00
45763;BME280;37512;52.408;13.356;2022-11-20T15:19:31;100379.03;;;-0.90;100.00
45763;BME280;37512;52.408;13.356;2022-11-20T15:23:34;100378.66;;;-0.83;100.00
45763;BME280;37512;52.408;13.356;2022-11-20T15:27:35;100374.00;;;-0.83;100.00
45763;BME280;37512;52.408;13.356;2022-11-20T15:31:38;100374.59;;;-0.86;100.00
45763;BME280;37512;52.408;13.356;2022-11-20T15:35:43;100369.59;;;-0.79;100.00
45763;BME280;37512;52.408;13.356;2022-11-20T15:39:45;100371.66;;;-0.90;100.00
45763;BME280;37512;52.408;13.356;2022-11-20T15:43:46;100369.06;;;-0.81;100.00
45763;BME280;37512;52.408;13.356;2022-11-20T15:47:48;100368.34;;;-0.87;100.00
45763;BME280;37512;52.408;13.356;2022-11-20T15:51:50;100363.47;;;-0.90;100.00
45763;BME280;37512;52.408;13.356;2022-11-20T15:55:53;100364.44;;;-0.80;100.00
45763;BME280;37512;52.408;13.356;2022-11-20T15:59:55;100361.66;;;-0.94;100.00
45763;BME280;37512;52.408;13.356;2022-11-20T16:03:56;100361.69;;;-0.80;100.00
45763;BME280;37512;52.408;13.356;2022-11-20T16:07:58;100358.09;;;-0.76;100.00
45763;BME280;37512;52.408;13.356;2022-11-20T16:11:59;100352.81;;;-0.86;100.00
45763;BME280;37512;52.408;13.356;2022-11-20T16:16:04;100346.56;;;-0.87;100.00
45763;BME280;37512;52.408;13.356;2022-11-20T16:20:10;100342.88;;;-0.96;100.00
45763;BME280;37512;52.408;13.356;2022-11-20T16:24:13;100345.47;;;-1.04;100.00
45763;BME280;37512;52.408;13.356;2022-11-20T16:28:16;100343.50;;;-1.37;100.00
45763;BME280;37512;52.408;13.356;2022-11-20T16:32:19;100355.41;;;-1.33;100.00
45763;BME280;37512;52.408;13.356;2022-11-20T16:36:23;100363.13;;;-1.40;100.00
45763;BME280;37512;52.408;13.356;2022-11-20T16:40:25;100356.00;;;-1.36;100.00
45763;BME280;37512;52.408;13.356;2022-11-20T16:44:26;100349.16;;;-1.33;100.00
45763;BME280;37512;52.408;13.356;2022-11-20T16:48:29;100348.72;;;-1.40;100.00
45763;BME280;37512;52.408;13.356;2022-11-20T16:52:31;100345.91;;;-1.35;100.00
45763;BME280;37512;52.408;13.356;2022-11-20T16:56:33;100339.06;;;-1.52;100.00
45763;BME280;37512;52.408;13.356;2022-11-20T17:00:38;100346.28;;;-1.61;100.00
45763;BME280;37512;52.408;13.356;2022-11-20T17:04:40;100347.97;;;-1.65;100.00
45763;BME280;37512;52.408;13.356;2022-11-20T17:08:42;100353.19;;;-1.69;100.00
45763;BME280;37512;52.408;13.356;2022-11-20T17:12:44;100343.00;;;-1.82;100.00
45763;BME280;37512;52.408;13.356;2022-11-20T17:16:45;100344.06;;;-1.78;100.00
45763;BME280;37512;52.408;13.356;2022-11-20T17:20:51;100342.66;;;-1.75;100.00
45763;BME280;37512;52.408;13.356;2022-11-20T17:24:52;100342.03;;;-1.91;100.00
45763;BME280;37512;52.408;13.356;2022-11-20T17:28:58;100347.16;;;-1.90;100.00
45763;BME280;37512;52.408;13.356;2022-11-20T17:33:00;100346.59;;;-1.86;100.00
45763;BME280;37512;52.408;13.356;2022-11-20T17:37:02;100335.84;;;-1.97;100.00
45763;BME280;37512;52.408;13.356;2022-11-20T17:41:08;100343.94;;;-1.92;100.00
45763;BME280;37512;52.408;13.356;2022-11-20T17:45:09;100342.50;;;-1.84;100.00
45763;BME280;37512;52.408;13.356;2022-11-20T17:49:11;100337.16;;;-1.94;100.00
45763;BME280;37512;52.408;13.356;2022-11-20T17:53:13;100342.22;;;-1.82;100.00
45763;BME280;37512;52.408;13.356;2022-11-20T17:57:14;100338.63;;;-1.78;100.00
45763;BME280;37512;52.408;13.356;2022-11-20T18:01:34;100331.59;;;-1.84;100.00
45763;BME280;37512;52.408;13.356;2022-11-20T18:05:36;100325.94;;;-1.87;100.00
45763;BME280;37512;52.408;13.356;2022-11-20T18:09:37;100323.66;;;-1.80;100.00
45763;BME280;37512;52.408;13.356;2022-11-20T18:13:44;100318.09;;;-1.70;100.00
45763;BME280;37512;52.408;13.356;2022-11-20T18:18:04;100310.81;;;-1.75;100.00
45763;BME280;37512;52.408;13.356;2022-11-20T18:22:06;100315.75;;;-2.01;100.00
45763;BME280;37512;52.408;13.356;2022-11-20T18:26:09;100307.09;;;-2.03;100.00
45763;BME280;37512;52.408;13.356;2022-11-20T18:30:11;100307.19;;;-1.89;100.00
45763;BME280;37512;52.408;13.356;2022-11-20T18:34:12;100308.16;;;-2.23;100.00
45763;BME280;37512;52.408;13.356;2022-11-20T18:38:14;100310.22;;;-2.39;100.00
45763;BME280;37512;52.408;13.356;2022-11-20T18:42:16;100305.53;;;-2.33;100.00
45763;BME280;37512;52.408;13.356;2022-11-20T18:46:36;100301.41;;;-2.55;100.00
45763;BME280;37512;52.408;13.356;2022-11-20T18:50:37;100297.56;;;-2.48;100.00
45763;BME280;37512;52.408;13.356;2022-11-20T18:54:39;100303.50;;;-2.46;100.00
45763;BME280;37512;52.408;13.356;2022-11-20T18:58:41;100299.97;;;-2.47;100.00
45763;BME280;37512;52.408;13.356;2022-11-20T19:02:42;100300.22;;;-2.43;100.00
45763;BME280;37512;52.408;13.356;2022-11-20T19:06:45;100290.16;;;-2.43;100.00
45763;BME280;37512;52.408;13.356;2022-11-20T19:10:49;100302.13;;;-2.44;100.00
45763;BME280;37512;52.408;13.356;2022-11-20T19:14:51;100306.06;;;-2.60;100.00
45763;BME280;37512;52.408;13.356;2022-11-20T19:18:53;100301.13;;;-2.53;100.00
45763;BME280;37512;52.408;13.356;2022-11-20T19:22:57;100303.59;;;-2.57;100.00
45763;BME280;37512;52.408;13.356;2022-11-20T19:26:59;100303.03;;;-2.54;100.00
45763;BME280;37512;52.408;13.356;2022-11-20T19:31:06;100311.22;;;-2.59;100.00
45763;BME280;37512;52.408;13.356;2022-11-20T19:35:08;100313.88;;;-2.48;100.00
45763;BME280;37512;52.408;13.356;2022-11-20T19:39:10;100310.56;;;-2.75;100.00
45763;BME280;37512;52.408;13.356;2022-11-20T19:43:12;100312.22;;;-2.74;100.00
45763;BME280;37512;52.408;13.356;2022-11-20T19:47:14;100302.16;;;-2.73;100.00
45763;BME280;37512;52.408;13.356;2022-11-20T19:51:20;100298.75;;;-2.60;100.00
45763;BME280;37512;52.408;13.356;2022-11-20T19:55:22;100297.03;;;-2.50;100.00
45763;BME280;37512;52.408;13.356;2022-11-20T19:59:24;100297.19;;;-2.66;100.00
45763;BME280;37512;52.408;13.356;2022-11-20T20:03:26;100287.06;;;-2.60;100.00
45763;BME280;37512;52.408;13.356;2022-11-20T20:07:28;100288.44;;;-2.87;100.00
45763;BME280;37512;52.408;13.356;2022-11-20T20:11:31;100287.94;;;-2.94;100.00
45763;BME280;37512;52.408;13.356;2022-11-20T20:15:33;100287.84;;;-2.84;100.00
45763;BME280;37512;52.408;13.356;2022-11-20T20:19:35;100284.00;;;-2.78;100.00
45763;BME280;37512;52.408;13.356;2022-11-20T20:23:36;100276.69;;;-2.82;100.00
45763;BME280;37512;52.408;13.356;2022-11-20T20:27:38;100275.72;;;-2.97;100.00
45763;BME280;37512;52.408;13.356;2022-11-20T20:31:40;100255.84;;;-2.92;100.00
45763;BME280;37512;52.408;13.356;2022-11-20T20:35:41;100256.81;;;-2.78;100.00
45763;BME280;37512;52.408;13.356;2022-11-20T20:39:43;100250.28;;;-2.77;100.00
45763;BME280;37512;52.408;13.356;2022-11-20T20:43:45;100253.00;;;-3.06;100.00
45763;BME280;37512;52.408;13.356;2022-11-20T20:48:05;100253.91;;;-2.86;100.00
45763;BME280;37512;52.408;13.356;2022-11-20T20:52:07;100250.44;;;-2.92;100.00
45763;BME280;37512;52.408;13.356;2022-11-20T20:56:09;100251.81;;;-2.95;100.00
45763;BME280;37512;52.408;13.356;2022-11-20T21:00:10;100239.94;;;-2.99;100.00
45763;BME280;37512;52.408;13.356;2022-11-20T21:04:12;100249.00;;;-3.13;100.00
45763;BME280;37512;52.408;13.356;2022-11-20T21:08:13;100238.69;;;-3.11;100.00
45763;BME280;37512;52.408;13.356;2022-11-20T21:12:28;100231.91;;;-3.14;100.00
45763;BME280;37512;52.408;13.356;2022-11-20T21:16:30;100223.19;;;-3.11;100.00
45763;BME280;37512;52.408;13.356;2022-11-20T21:20:41;100219.72;;;-3.17;100.00
45763;BME280;37512;52.408;13.356;2022-11-20T21:25:01;100219.41;;;-3.15;100.00
45763;BME280;37512;52.408;13.356;2022-11-20T21:29:03;100215.97;;;-3.21;100.00
45763;BME280;37512;52.408;13.356;2022-11-20T21:33:04;100208.13;;;-3.27;100.00
45763;BME280;37512;52.408;13.356;2022-11-20T21:37:06;100205.03;;;-3.45;100.00
45763;BME280;37512;52.408;13.356;2022-11-20T21:41:09;100200.06;;;-3.38;100.00
45763;BME280;37512;52.408;13.356;2022-11-20T21:45:11;100193.31;;;-3.40;100.00
45763;BME280;37512;52.408;13.356;2022-11-20T21:49:12;100195.56;;;-3.47;100.00
45763;BME280;37512;52.408;13.356;2022-11-20T21:53:15;100196.13;;;-3.50;100.00
45763;BME280;37512;52.408;13.356;2022-11-20T21:57:17;100184.56;;;-4.01;100.00
45763;BME280;37512;52.408;13.356;2022-11-20T22:05:21;100173.94;;;-3.58;100.00
45763;BME280;37512;52.408;13.356;2022-11-20T22:09:22;100174.50;;;-3.61;100.00
45763;BME280;37512;52.408;13.356;2022-11-20T22:13:25;100166.66;;;-3.62;100.00
45763;BME280;37512;52.408;13.356;2022-11-20T22:17:46;100164.78;;;-3.67;100.00
45763;BME280;37512;52.408;13.356;2022-11-20T22:22:14;100167.53;;;-3.72;100.00